createdAt,value
2019-06-20T00:00:43.614Z,155706.61
2019-06-20T00:03:12.185Z,155727.81
2019-06-20T00:05:40.672Z,155718.53
2019-06-20T00:08:09.118Z,155718.53
2019-06-20T00:10:37.630Z,155657.53
2019-06-20T00:13:06.369Z,155661.53
2019-06-20T00:15:35.901Z,155638.95
2019-06-20T00:18:04.369Z,155599.17
2019-06-20T00:20:32.868Z,155577.97
2019-06-20T00:23:01.389Z,155604.45
2019-06-20T00:25:30.507Z,155507.70
2019-06-20T00:27:58.982Z,155540.83
2019-06-20T00:30:27.498Z,155493.14
2019-06-20T00:32:55.971Z,155516.98
2019-06-20T00:35:24.463Z,155535.55
2019-06-20T00:37:52.934Z,155560.72
2019-06-20T00:40:21.498Z,155567.36
2019-06-20T00:42:49.963Z,155465.30
2019-06-20T00:45:20.196Z,155418.84
2019-06-20T00:47:48.719Z,155503.75
2019-06-20T00:50:17.411Z,155524.95
2019-06-20T00:52:45.881Z,155437.41
2019-06-20T00:55:14.375Z,155361.89
2019-06-20T00:57:42.841Z,155397.64
2019-06-20T01:00:11.649Z,155429.44
2019-06-20T01:02:40.136Z,155455.97
2019-06-20T01:05:09.038Z,155466.63
2019-06-20T01:07:37.587Z,155395.00
2019-06-20T01:10:08.484Z,155448.00
2019-06-20T01:12:36.979Z,155409.61
2019-06-20T01:15:07.448Z,155429.44
2019-06-20T01:17:36.176Z,155421.53
2019-06-20T01:20:06.754Z,155426.80
2019-06-20T01:22:35.253Z,155425.48
2019-06-20T01:25:05.017Z,155434.77
2019-06-20T01:27:33.511Z,155437.41
2019-06-20T01:30:01.979Z,155430.81
2019-06-20T01:32:30.492Z,155428.12
2019-06-20T01:34:58.959Z,155429.44
2019-06-20T01:37:27.437Z,155418.84
2019-06-20T01:39:55.914Z,155409.61
2019-06-20T01:42:24.400Z,155413.56
2019-06-20T01:44:52.872Z,155420.22
2019-06-20T01:47:21.370Z,155389.73
2019-06-20T01:49:49.834Z,155384.41
2019-06-20T01:52:18.325Z,155387.05
2019-06-20T01:54:46.807Z,155363.22
2019-06-20T01:57:15.312Z,155361.89
2019-06-20T01:59:43.769Z,155352.61
2019-06-20T02:02:12.255Z,155345.97
2019-06-20T02:04:40.735Z,155355.25
2019-06-20T02:07:09.233Z,155343.33
2019-06-20T02:09:37.696Z,155310.22
2019-06-20T02:12:06.260Z,155306.27
2019-06-20T02:14:34.741Z,155306.27
2019-06-20T02:17:03.253Z,155310.22
2019-06-20T02:19:31.727Z,155306.27
2019-06-20T02:22:00.359Z,155320.81
2019-06-20T02:24:28.841Z,155308.91
2019-06-20T02:26:57.331Z,155285.08
2019-06-20T02:29:25.850Z,155312.86
2019-06-20T02:31:54.349Z,155311.55
2019-06-20T02:34:22.821Z,155286.41
2019-06-20T02:36:51.224Z,155279.75
2019-06-20T02:39:19.690Z,155277.13
2019-06-20T02:41:48.181Z,155291.67
2019-06-20T02:44:29.094Z,155192.31
2019-06-20T02:46:46.894Z,155152.59
2019-06-20T02:49:15.368Z,155183.05
2019-06-20T02:51:44.285Z,155194.95
2019-06-20T02:54:12.755Z,155212.19
2019-06-20T02:56:41.221Z,155217.45
2019-06-20T02:59:09.737Z,155206.87
2019-06-20T03:01:38.185Z,155194.95
2019-06-20T03:04:06.672Z,155183.05
2019-06-20T03:06:35.410Z,155161.86
2019-06-20T03:09:05.786Z,155163.19
2019-06-20T03:11:34.247Z,155167.12
2019-06-20T03:14:02.742Z,155151.27
2019-06-20T03:16:31.224Z,155100.95
2019-06-20T03:18:59.713Z,155098.31
2019-06-20T03:21:28.180Z,155108.91
2019-06-20T03:23:56.660Z,155124.77
2019-06-20T03:26:25.131Z,155123.45
2019-06-20T03:28:53.624Z,155140.67
2019-06-20T03:31:22.104Z,155108.91
2019-06-20T03:33:50.598Z,155116.86
2019-06-20T03:36:19.065Z,155130.09
2019-06-20T03:38:47.545Z,155077.13
2019-06-20T03:41:16.019Z,155020.14
2019-06-20T03:43:44.525Z,155071.81
2019-06-20T03:46:12.986Z,155049.31
2019-06-20T03:48:41.469Z,155069.19
2019-06-20T03:51:10.095Z,155065.23
2019-06-20T03:53:38.582Z,155025.47
2019-06-20T03:56:07.049Z,155024.14
2019-06-20T03:58:35.814Z,155078.45
2019-06-20T04:01:04.282Z,155089.05
2019-06-20T04:03:32.772Z,155083.72
2019-06-20T04:06:01.251Z,155089.05
2019-06-20T04:08:29.739Z,155089.05
2019-06-20T04:10:58.217Z,155100.95
2019-06-20T04:13:26.773Z,155069.19
2019-06-20T04:15:55.261Z,155045.31
2019-06-20T04:18:23.760Z,155103.59
2019-06-20T04:20:52.216Z,155093.00
2019-06-20T04:23:20.699Z,155087.72
2019-06-20T04:25:49.194Z,155102.27
2019-06-20T04:28:17.664Z,155127.45
2019-06-20T04:30:46.110Z,155142.00
2019-06-20T04:33:14.591Z,155155.22
2019-06-20T04:35:43.055Z,155159.22
2019-06-20T04:38:11.553Z,155180.41
2019-06-20T04:40:40.033Z,155194.95
2019-06-20T04:43:08.497Z,155209.50
2019-06-20T04:45:38.635Z,155221.47
2019-06-20T04:48:07.097Z,155230.69
2019-06-20T04:50:35.973Z,155249.23
2019-06-20T04:53:04.527Z,155259.89
2019-06-20T04:55:33.050Z,155266.53
2019-06-20T04:58:01.509Z,155303.58
2019-06-20T05:00:29.995Z,155326.14
2019-06-20T05:02:58.468Z,155310.22
2019-06-20T05:05:26.968Z,155314.19
2019-06-20T05:07:55.447Z,155339.38
2019-06-20T05:10:23.920Z,155376.44
2019-06-20T05:12:55.849Z,155413.56
2019-06-20T05:15:22.620Z,155446.69
2019-06-20T05:17:51.360Z,155466.63
2019-06-20T05:20:19.970Z,155458.66
2019-06-20T05:22:48.559Z,155486.50
2019-06-20T05:25:17.056Z,155509.03
2019-06-20T05:27:45.561Z,155538.19
2019-06-20T05:30:14.917Z,155531.55
2019-06-20T05:32:43.376Z,155568.69
2019-06-20T05:35:12.229Z,155583.23
2019-06-20T05:37:40.690Z,155587.25
2019-06-20T05:40:10.436Z,155572.64
2019-06-20T05:42:38.893Z,155559.39
2019-06-20T05:45:08.118Z,155562.03
2019-06-20T05:47:36.604Z,155512.97
2019-06-20T05:50:11.579Z,155505.06
2019-06-20T05:52:40.028Z,155514.34
2019-06-20T05:55:08.909Z,155540.83
2019-06-20T05:57:37.353Z,155532.86
2019-06-20T06:00:09.195Z,155538.19
2019-06-20T06:02:40.245Z,155535.55
2019-06-20T06:05:09.327Z,155554.06
2019-06-20T06:07:37.796Z,155554.06
2019-06-20T06:10:07.739Z,155554.06
2019-06-20T06:12:52.015Z,155527.59
2019-06-20T06:15:21.749Z,155530.22
2019-06-20T06:17:50.380Z,155519.62
2019-06-20T06:20:20.631Z,155498.42
2019-06-20T06:22:49.078Z,155454.64
2019-06-20T06:25:17.793Z,155453.33
2019-06-20T06:27:46.294Z,155392.37
2019-06-20T06:30:15.602Z,155318.19
2019-06-20T06:32:44.065Z,155220.09
2019-06-20T06:35:13.106Z,155145.95
2019-06-20T06:37:41.581Z,155135.36
2019-06-20T06:40:11.994Z,155241.28
2019-06-20T06:42:40.531Z,155228.05
2019-06-20T06:45:11.002Z,155217.45
2019-06-20T06:47:39.477Z,155217.45
2019-06-20T06:50:08.907Z,155127.45
2019-06-20T06:52:37.372Z,155022.78
2019-06-20T06:55:06.826Z,155057.28
2019-06-20T06:57:35.297Z,155074.45
2019-06-20T07:00:09.644Z,155095.62
2019-06-20T07:02:38.179Z,155106.22
2019-06-20T07:05:07.682Z,155063.86
2019-06-20T07:07:36.186Z,155078.45
2019-06-20T07:10:08.060Z,155114.17
2019-06-20T07:12:36.666Z,155087.72
2019-06-20T07:15:09.063Z,155081.09
2019-06-20T07:17:37.616Z,155102.27
2019-06-20T07:20:07.330Z,155152.59
2019-06-20T07:22:36.295Z,155183.05
2019-06-20T07:25:07.297Z,155208.19
2019-06-20T07:27:35.850Z,155233.37
2019-06-20T07:30:06.909Z,155249.23
2019-06-20T07:32:35.395Z,155262.53
2019-06-20T07:35:06.001Z,155175.09
2019-06-20T07:37:34.484Z,155192.31
2019-06-20T07:40:04.426Z,155189.64
2019-06-20T07:42:32.914Z,155185.69
2019-06-20T07:45:01.386Z,155257.25
2019-06-20T07:47:29.877Z,155266.53
2019-06-20T07:49:58.355Z,155273.13
2019-06-20T07:52:26.840Z,155262.53
2019-06-20T07:54:55.349Z,155250.56
2019-06-20T07:57:23.891Z,155259.89
2019-06-20T07:59:52.352Z,155269.16
2019-06-20T08:02:20.851Z,155278.44
2019-06-20T08:04:49.325Z,155283.77
2019-06-20T08:07:17.802Z,155271.80
2019-06-20T08:09:46.276Z,155289.03
2019-06-20T08:12:14.758Z,155291.67
2019-06-20T08:14:43.239Z,155300.94
2019-06-20T08:17:11.723Z,155310.22
2019-06-20T08:19:40.193Z,155322.14
2019-06-20T08:22:08.659Z,155326.14
2019-06-20T08:24:37.128Z,155342.02
2019-06-20T08:27:06.718Z,155351.30
2019-06-20T08:29:35.359Z,155387.05
2019-06-20T08:32:04.559Z,155379.13
2019-06-20T08:34:33.149Z,155410.94
2019-06-20T08:37:02.428Z,155437.41
2019-06-20T08:39:31.066Z,155577.97
2019-06-20T08:42:00.483Z,155626.98
2019-06-20T08:44:29.115Z,155678.75
2019-06-20T08:47:00.217Z,155843.25
2019-06-20T08:49:27.790Z,156090.14
2019-06-20T08:51:57.365Z,156257.48
2019-06-20T08:54:25.911Z,156278.73
2019-06-20T08:56:56.101Z,156536.48
2019-06-20T08:59:25.030Z,156628.25
2019-06-20T09:01:56.494Z,156589.69
2019-06-20T09:04:23.866Z,156495.28
2019-06-20T09:06:55.190Z,156325.19
2019-06-20T09:09:22.572Z,156254.80
2019-06-20T09:11:51.033Z,156249.50
2019-06-20T09:14:19.523Z,156220.28
2019-06-20T09:16:48.008Z,156212.31
2019-06-20T09:19:16.495Z,156185.72
2019-06-20T09:21:44.961Z,156128.61
2019-06-20T09:24:13.456Z,156129.98
2019-06-20T09:26:41.942Z,156140.59
2019-06-20T09:29:10.438Z,156201.62
2019-06-20T09:31:38.904Z,156167.12
2019-06-20T09:34:07.410Z,156037.06
2019-06-20T09:36:35.964Z,156003.78
2019-06-20T09:39:06.674Z,155952.03
2019-06-20T09:41:35.145Z,155965.34
2019-06-20T09:44:03.711Z,156156.50
2019-06-20T09:46:32.246Z,156257.48
2019-06-20T09:49:00.766Z,156215.00
2019-06-20T09:51:29.235Z,156215.00
2019-06-20T09:53:58.215Z,156128.61
2019-06-20T09:56:26.773Z,156104.73
2019-06-20T09:58:55.362Z,156164.48
2019-06-20T10:01:23.819Z,156209.66
2019-06-20T10:03:52.484Z,156207.02
2019-06-20T10:06:21.021Z,156233.55
2019-06-20T10:08:50.086Z,156207.02
2019-06-20T10:11:18.714Z,156160.47
2019-06-20T10:13:48.183Z,156185.72
2019-06-20T10:16:16.787Z,156585.72
2019-06-20T10:18:46.801Z,156585.72
2019-06-20T10:21:15.477Z,156975.44
2019-06-20T10:23:46.037Z,156975.44
2019-06-20T10:26:14.231Z,156819.75
2019-06-20T10:28:42.720Z,156858.34
2019-06-20T10:31:11.312Z,157010.06
2019-06-20T10:33:39.796Z,156986.08
2019-06-20T10:36:08.262Z,157192.47
2019-06-20T10:38:36.800Z,157287.00
2019-06-20T10:41:05.416Z,156770.58
2019-06-20T10:43:33.874Z,156827.75
2019-06-20T10:46:02.351Z,156753.28
2019-06-20T10:48:31.091Z,156914.23
2019-06-20T10:51:17.694Z,156765.23
2019-06-20T10:53:47.141Z,156759.95
2019-06-20T10:56:15.765Z,156775.88
2019-06-20T10:58:44.618Z,156859.66
2019-06-20T11:01:13.182Z,156866.33
2019-06-20T11:03:41.987Z,156846.37
2019-06-20T11:06:10.716Z,156875.66
2019-06-20T11:08:40.626Z,156879.67
2019-06-20T11:11:09.563Z,156781.22
2019-06-20T11:13:39.532Z,156763.92
2019-06-20T11:16:08.335Z,156698.72
2019-06-20T11:18:38.314Z,156610.97
2019-06-20T11:21:07.215Z,156610.97
2019-06-20T11:23:36.466Z,156551.19
2019-06-20T11:26:06.039Z,156547.13
2019-06-20T11:28:34.517Z,156593.72
2019-06-20T11:31:03.083Z,156596.36
2019-06-20T11:33:31.616Z,156551.19
2019-06-20T11:36:00.147Z,156559.17
2019-06-20T11:38:28.607Z,156536.48
2019-06-20T11:40:57.098Z,156544.47
2019-06-20T11:43:25.610Z,156532.52
2019-06-20T11:45:55.186Z,156523.20
2019-06-20T11:48:23.647Z,156540.50
2019-06-20T11:50:52.235Z,156503.28
2019-06-20T11:53:20.692Z,156484.66
2019-06-20T11:55:49.180Z,156454.09
2019-06-20T11:58:17.639Z,156463.41
2019-06-20T12:01:02.666Z,156442.14
2019-06-20T12:03:16.644Z,156468.73
2019-06-20T12:05:47.201Z,156475.41
2019-06-20T12:08:15.924Z,156471.37
2019-06-20T12:10:45.187Z,156398.31
2019-06-20T12:13:13.963Z,156390.33
2019-06-20T12:15:42.884Z,156459.44
2019-06-20T12:18:11.409Z,156475.41
2019-06-20T12:20:42.816Z,156517.92
2019-06-20T12:23:11.472Z,156497.98
2019-06-20T12:25:42.683Z,156496.66
2019-06-20T12:28:11.374Z,156482.02
2019-06-20T12:30:41.507Z,156499.30
2019-06-20T12:33:10.555Z,156443.47
2019-06-20T12:35:39.546Z,156415.59
2019-06-20T12:38:09.462Z,156408.94
2019-06-20T12:40:39.290Z,156393.02
2019-06-20T12:43:08.301Z,156431.52
2019-06-20T12:45:36.797Z,156420.89
2019-06-20T12:48:05.282Z,156454.09
2019-06-20T12:50:33.865Z,156454.09
2019-06-20T12:53:02.364Z,156423.58
2019-06-20T12:55:30.922Z,156416.92
2019-06-20T12:57:59.557Z,156435.53
2019-06-20T13:00:29.137Z,156428.88
2019-06-20T13:02:57.881Z,156419.56
2019-06-20T13:05:27.111Z,156386.36
2019-06-20T13:07:55.663Z,156391.70
2019-06-20T13:10:24.334Z,156382.39
2019-06-20T13:12:52.930Z,156396.98
2019-06-20T13:15:22.612Z,156369.03
2019-06-20T13:17:51.341Z,156363.73
2019-06-20T13:20:20.171Z,156358.41
2019-06-20T13:22:49.577Z,156361.09
2019-06-20T13:25:18.364Z,156349.09
2019-06-20T13:27:47.853Z,156363.73
2019-06-20T13:30:17.131Z,156366.38
2019-06-20T13:32:47.001Z,156355.75
2019-06-20T13:35:16.433Z,156366.38
2019-06-20T13:37:45.768Z,156345.13
2019-06-20T13:40:16.910Z,156358.41
2019-06-20T13:42:46.095Z,156346.45
2019-06-20T13:45:23.216Z,156302.62
2019-06-20T13:47:52.155Z,156306.59
2019-06-20T13:50:22.187Z,156270.75
2019-06-20T13:52:51.275Z,156270.75
2019-06-20T13:55:20.354Z,156257.48
2019-06-20T13:57:49.367Z,156236.25
2019-06-20T14:00:20.162Z,156164.48
2019-06-20T14:02:49.067Z,156151.22
2019-06-20T14:05:18.531Z,156159.16
2019-06-20T14:07:51.399Z,156145.89
2019-06-20T14:10:19.952Z,156100.77
2019-06-20T14:12:48.881Z,156143.25
2019-06-20T14:15:18.204Z,156119.31
2019-06-20T14:17:47.605Z,156143.25
2019-06-20T14:20:17.754Z,156106.05
2019-06-20T14:22:46.235Z,156080.84
2019-06-20T14:25:15.169Z,156041.03
2019-06-20T14:27:43.947Z,156038.38
2019-06-20T14:30:13.756Z,156021.06
2019-06-20T14:32:43.190Z,155986.56
2019-06-20T14:35:12.748Z,155957.36
2019-06-20T14:37:43.348Z,155948.06
2019-06-20T14:40:12.909Z,155965.34
2019-06-20T14:42:42.965Z,156015.77
2019-06-20T14:45:12.463Z,155978.59
2019-06-20T14:47:40.955Z,155946.75
2019-06-20T14:50:10.460Z,155978.59
2019-06-20T14:52:39.146Z,155952.03
2019-06-20T14:55:08.797Z,155957.36
2019-06-20T14:57:37.330Z,155981.23
2019-06-20T15:00:08.162Z,155964.02
2019-06-20T15:02:38.921Z,156006.48
2019-06-20T15:05:15.262Z,156005.16
2019-06-20T15:07:45.682Z,156043.66
2019-06-20T15:10:15.952Z,156063.58
2019-06-20T15:12:45.927Z,156084.81
2019-06-20T15:15:16.066Z,156043.66
2019-06-20T15:17:46.450Z,156052.95
2019-06-20T15:20:15.381Z,156013.08
2019-06-20T15:22:46.734Z,156067.59
2019-06-20T15:25:15.186Z,156052.95
2019-06-20T15:27:47.972Z,156060.94
2019-06-20T15:30:17.116Z,156068.91
2019-06-20T15:33:00.811Z,156067.59
2019-06-20T15:35:17.311Z,156063.58
2019-06-20T15:37:46.683Z,156058.30
2019-06-20T15:40:16.347Z,156044.98
2019-06-20T15:42:44.820Z,156037.06
2019-06-20T15:45:14.664Z,156044.98
2019-06-20T15:47:43.144Z,156049.00
2019-06-20T15:50:13.293Z,156042.34
2019-06-20T15:52:41.816Z,156033.05
2019-06-20T15:55:12.165Z,156042.34
2019-06-20T15:57:41.806Z,156056.97
2019-06-20T16:00:12.029Z,156055.59
2019-06-20T16:02:40.510Z,156049.00
2019-06-20T16:05:09.647Z,156046.36
2019-06-20T16:07:38.396Z,156071.55
2019-06-20T16:10:08.929Z,156074.19
2019-06-20T16:12:37.437Z,156079.53
2019-06-20T16:15:09.004Z,156072.88
2019-06-20T16:17:37.484Z,156056.97
2019-06-20T16:20:06.984Z,156054.28
2019-06-20T16:22:35.432Z,156029.08
2019-06-20T16:25:05.683Z,156047.67
2019-06-20T16:27:34.161Z,156044.98
2019-06-20T16:30:02.683Z,156047.67
2019-06-20T16:32:31.165Z,156051.64
2019-06-20T16:34:59.709Z,156055.59
2019-06-20T16:37:28.206Z,156052.95
2019-06-20T16:39:56.700Z,156041.03
2019-06-20T16:42:25.171Z,156043.66
2019-06-20T16:44:53.666Z,156035.69
2019-06-20T16:47:22.131Z,156037.06
2019-06-20T16:49:50.630Z,156041.03
2019-06-20T16:52:19.122Z,156050.31
2019-06-20T16:54:47.639Z,156058.30
2019-06-20T16:57:16.117Z,156070.23
2019-06-20T16:59:44.639Z,156064.89
2019-06-20T17:02:13.109Z,156058.30
2019-06-20T17:04:41.609Z,156047.67
2019-06-20T17:07:10.166Z,156059.63
2019-06-20T17:09:38.870Z,156063.58
2019-06-20T17:12:10.921Z,156062.25
2019-06-20T17:14:37.578Z,156047.67
2019-06-20T17:17:06.096Z,156037.06
2019-06-20T17:19:34.657Z,156021.06
2019-06-20T17:22:03.354Z,156026.44
2019-06-20T17:24:31.822Z,156031.72
2019-06-20T17:27:00.298Z,156021.06
2019-06-20T17:29:30.069Z,156023.70
2019-06-20T17:31:58.540Z,156017.09
2019-06-20T17:34:27.040Z,156031.72
2019-06-20T17:36:55.663Z,156030.41
2019-06-20T17:39:24.542Z,156014.41
2019-06-20T17:41:55.566Z,155997.19
2019-06-20T17:44:23.586Z,155991.84
2019-06-20T17:46:52.147Z,155982.56
2019-06-20T17:49:20.994Z,155954.72
2019-06-20T17:51:49.512Z,155962.69
2019-06-20T17:54:17.993Z,155965.34
2019-06-20T17:56:46.617Z,155962.69
2019-06-20T17:59:15.134Z,155962.69
2019-06-20T18:01:43.608Z,155962.69
2019-06-20T18:04:14.022Z,155967.97
2019-06-20T18:06:44.020Z,155981.23
2019-06-20T18:09:12.581Z,155982.56
2019-06-20T18:11:41.107Z,155970.63
2019-06-20T18:14:09.597Z,155965.34
2019-06-20T18:16:38.227Z,155969.30
2019-06-20T18:19:06.886Z,155978.59
2019-06-20T18:21:35.415Z,155978.59
2019-06-20T18:24:04.061Z,155966.66
2019-06-20T18:26:32.550Z,155965.34
2019-06-20T18:29:01.105Z,155973.31
2019-06-20T18:31:29.749Z,155978.59
2019-06-20T18:33:58.202Z,155978.59
2019-06-20T18:36:26.816Z,155974.63
2019-06-20T18:38:55.319Z,155970.63
2019-06-20T18:41:23.925Z,155971.94
2019-06-20T18:43:52.423Z,155960.00
2019-06-20T18:46:20.921Z,155965.34
2019-06-20T18:48:49.486Z,155952.03
2019-06-20T18:51:17.990Z,155952.03
2019-06-20T18:53:46.566Z,155942.78
2019-06-20T18:56:15.205Z,155946.75
2019-06-20T18:58:43.768Z,155928.16
2019-06-20T19:01:12.273Z,155909.58
2019-06-20T19:03:40.738Z,155902.97
2019-06-20T19:06:09.336Z,155898.97
2019-06-20T19:08:37.830Z,155912.27
2019-06-20T19:11:06.335Z,155877.73
2019-06-20T19:13:34.830Z,155897.64
2019-06-20T19:16:03.369Z,155897.64
2019-06-20T19:18:32.102Z,155897.64
2019-06-20T19:21:00.619Z,155875.09
2019-06-20T19:23:29.074Z,155883.06
2019-06-20T19:25:57.579Z,155885.72
2019-06-20T19:28:26.025Z,155883.06
2019-06-20T19:30:54.609Z,155843.25
2019-06-20T19:33:23.158Z,155852.55
2019-06-20T19:35:51.635Z,155845.91
2019-06-20T19:38:20.193Z,155853.88
2019-06-20T19:40:50.414Z,155856.50
2019-06-20T19:43:19.365Z,155843.25
2019-06-20T19:45:47.911Z,155845.91
2019-06-20T19:48:16.749Z,155827.31
2019-06-20T19:50:45.681Z,155816.70
2019-06-20T19:53:14.411Z,155807.41
2019-06-20T19:55:43.063Z,155787.52
2019-06-20T19:58:11.831Z,155776.91
2019-06-20T20:00:40.496Z,155776.91
2019-06-20T20:03:09.478Z,155771.58
2019-06-20T20:05:38.196Z,155754.38
2019-06-20T20:08:08.289Z,155747.72
2019-06-20T20:10:42.634Z,155726.50
2019-06-20T20:13:11.144Z,155711.94
2019-06-20T20:15:39.752Z,155702.66
2019-06-20T20:18:08.531Z,155688.03
2019-06-20T20:20:37.141Z,155684.06
2019-06-20T20:23:05.839Z,155688.03
2019-06-20T20:25:34.313Z,155670.83
2019-06-20T20:28:02.913Z,155637.59
2019-06-20T20:30:31.472Z,155641.59
2019-06-20T20:33:01.975Z,155641.59
2019-06-20T20:35:35.588Z,155632.31
2019-06-20T20:38:01.360Z,155642.91
2019-06-20T20:40:29.996Z,155641.59
2019-06-20T20:42:58.887Z,155633.63
2019-06-20T20:45:27.349Z,155625.66
2019-06-20T20:47:55.913Z,155615.06
2019-06-20T20:50:25.122Z,155625.66
2019-06-20T20:52:53.614Z,155625.66
2019-06-20T20:55:22.267Z,155624.34
2019-06-20T20:57:50.817Z,155623.03
2019-06-20T21:00:24.924Z,155615.06
2019-06-20T21:02:54.264Z,155601.81
2019-06-20T21:05:22.805Z,155604.45
2019-06-20T21:07:51.486Z,155599.17
2019-06-20T21:10:20.551Z,155593.84
2019-06-20T21:12:49.279Z,155588.56
2019-06-20T21:15:19.540Z,155584.56
2019-06-20T21:17:48.412Z,155577.97
2019-06-20T21:20:17.702Z,155568.69
2019-06-20T21:22:46.289Z,155562.03
2019-06-20T21:25:15.004Z,155562.03
2019-06-20T21:27:43.520Z,155552.75
2019-06-20T21:30:13.240Z,155550.11
2019-06-20T21:32:41.706Z,155543.47
2019-06-20T21:35:11.042Z,155540.83
2019-06-20T21:37:39.747Z,155535.55
2019-06-20T21:40:08.784Z,155534.23
2019-06-20T21:42:37.314Z,155527.59
2019-06-20T21:45:07.034Z,155524.95
2019-06-20T21:47:35.588Z,155526.27
2019-06-20T21:50:08.831Z,155523.58
2019-06-20T21:52:37.924Z,155524.95
2019-06-20T21:55:07.182Z,155509.03
2019-06-20T21:57:35.656Z,155511.66
2019-06-20T22:00:23.514Z,155519.62
2019-06-20T22:02:51.986Z,155524.95
2019-06-20T22:05:20.557Z,155526.27
2019-06-20T22:07:49.045Z,155526.27
2019-06-20T22:10:17.769Z,155514.34
2019-06-20T22:12:46.252Z,155505.06
2019-06-20T22:15:16.631Z,155501.06
2019-06-20T22:17:45.114Z,155495.78
2019-06-20T22:20:14.286Z,155506.38
2019-06-20T22:22:42.819Z,155471.94
2019-06-20T22:25:12.377Z,155442.72
2019-06-20T22:27:40.851Z,155474.58
2019-06-20T22:30:11.687Z,155490.45
2019-06-20T22:32:40.153Z,155477.22
2019-06-20T22:35:09.579Z,155428.12
2019-06-20T22:37:38.060Z,155404.28
2019-06-20T22:40:07.688Z,155434.77
2019-06-20T22:42:36.179Z,155422.84
2019-06-20T22:45:09.341Z,155429.44
2019-06-20T22:47:38.051Z,155400.33
2019-06-20T22:50:07.876Z,155355.25
2019-06-20T22:52:36.362Z,155355.25
2019-06-20T22:55:08.665Z,155359.25
2019-06-20T22:57:37.112Z,155335.38
2019-06-20T23:00:09.399Z,155347.34
2019-06-20T23:02:38.772Z,155297.00
2019-06-20T23:05:08.971Z,155300.94
2019-06-20T23:07:37.514Z,155275.81
2019-06-20T23:10:10.835Z,155266.53
2019-06-20T23:12:37.512Z,155228.05
2019-06-20T23:15:07.375Z,155225.41
2019-06-20T23:17:35.833Z,155230.69
2019-06-20T23:20:06.457Z,155206.87
2019-06-20T23:22:34.936Z,155180.41
2019-06-20T23:25:05.266Z,155188.31
2019-06-20T23:27:33.777Z,155160.55
2019-06-20T23:30:02.421Z,155127.45
2019-06-20T23:32:30.907Z,155131.41
2019-06-20T23:34:59.587Z,155167.12
2019-06-20T23:37:28.061Z,155132.72
2019-06-20T23:39:56.570Z,155114.17
2019-06-20T23:42:25.035Z,155102.27
2019-06-20T23:44:53.536Z,155085.03
2019-06-20T23:47:22.092Z,155091.69
2019-06-20T23:49:50.586Z,155071.81
2019-06-20T23:52:23.163Z,155061.23
2019-06-20T23:54:51.656Z,155069.19
2019-06-20T23:57:20.139Z,155061.23
2019-06-20T23:59:48.641Z,155089.05
